ドゥシャンベ空港の過去48時間の天気

ドゥシャンベ空港 (Dushanbe)

現在時刻: 5/26 07:36 +05 (5/26 02:36 UTC) 以下の時間は現地時間です。

過去48時間のMETAR気象情報
時間 風向 風速(m/s) 視程 気温(℃) 湿度(%) 気圧(hPa) 天気現象
26 07:00 不定 1 10km以上 23 57 1012
26 06:30 不定 2 10km以上 21 56 1012
26 06:00 4 10km以上 20 60 1011
26 05:30 不定 2 10km以上 18 68 1011
26 05:00 南南西 2 10km以上 17 72 1011
26 04:00 北北東 2 10km以上 19 64 1010
26 03:30 北東 3 10km以上 19 64 1010
26 03:00 不定 2 10km以上 18 68 1010
26 02:30 不定 1 10km以上 19 64 1010
26 02:00 不定 1 10km以上 19 64 1010
26 01:30 北東 2 10km以上 20 60 1011
26 01:00 東南東 2 10km以上 19 68 1011
26 00:30 2 10km以上 20 60 1011
26 00:00 不定 1 10km以上 21 56 1011
25 23:30 2 10km以上 21 60 1011
25 23:00 不定 2 10km以上 21 56 1011
25 22:30 不定 1 10km以上 22 53 1011
25 22:00 不定 2 10km以上 23 53 1011
25 21:30 不定 1 10km以上 24 47 1011
25 21:00 3 10km以上 24 50 1011
25 20:30 4 10km以上 26 42 1010
25 20:00 3 10km以上 26 42 1010
25 19:30 北北東 3 10km以上 27 42 1010
25 19:00 不定 2 10km以上 29 40 1010
25 18:30 南東 2 10km以上 31 31 1010
25 18:00 南東 2 10km以上 32 26 1010
25 17:30 南南東 2 10km以上 32 28 1010
25 17:00 不定 2 10km以上 32 23 1010
25 16:30 不定 2 10km以上 33 24 1010
25 16:00 不定 1 10km以上 34 20 1010
25 15:30 不定 2 10km以上 33 23 1010
25 15:00 不定 2 10km以上 33 23 1010
25 14:30 不定 2 10km以上 33 21 1011
25 14:00 不定 2 10km以上 33 20 1011
25 13:30 3 10km以上 32 21 1011
25 13:00 南南東 3 10km以上 32 18 1011
25 12:30 南東 3 10km以上 31 26 1011
25 12:00 3 10km以上 31 24 1011
25 11:30 南東 3 10km以上 30 22 1012
25 11:00 不定 2 10km以上 29 27 1012
25 10:30 不定 2 10km以上 29 29 1012
25 10:00 不定 1 10km以上 28 32 1012
25 09:30 不定 2 10km以上 26 32 1012
25 09:00 不定 2 10km以上 25 34 1012
25 08:30 不定 1 10km以上 24 38 1012
25 08:00 不定 1 10km以上 21 60 1012
25 07:30 不定 2 10km以上 20 60 1012
25 07:00 不定 2 10km以上 20 49 1012
25 06:30 1 10km以上 18 60 1011
25 06:00 不定 2 10km以上 18 52 1011
25 05:30 不定 2 10km以上 16 63 1011
25 05:00 2 10km以上 15 72 1010
25 04:30 不定 1 10km以上 14 77 1010
25 04:00 不定 1 10km以上 15 72 1010
25 03:30 不定 1 10km以上 15 67 1010
25 03:00 不定 2 10km以上 16 68 1009
25 02:30 不定 1 10km以上 17 63 1009
25 02:00 2 10km以上 16 68 1009
25 01:30 不定 2 10km以上 17 63 1009
25 01:00 不定 2 10km以上 16 72 1009
25 00:30 不定 2 10km以上 20 49 1009
25 00:00 1 10km以上 18 64 1009
24 23:30 不定 1 10km以上 19 60 1009
24 23:00 不定 1 10km以上 19 60 1009
24 22:30 1 10km以上 20 56 1009
24 22:00 不定 2 10km以上 21 53 1009
24 21:30 不定 1 10km以上 20 53 1008
24 21:00 不定 1 10km以上 23 47 1008
24 20:30 不定 2 10km以上 22 50 1008
24 20:00 3 10km以上 23 50 1007
24 19:30 2 10km以上 25 39 1007
24 19:00 不定 2 10km以上 27 34 1007
24 18:30 不定 2 10km以上 28 37 1007
24 18:00 不定 2 10km以上 29 31 1006
24 17:30 不定 2 10km以上 29 27 1006
24 17:00 不定 2 10km以上 29 27 1006
24 16:30 東南東 3 10km以上 29 27 1007
24 16:00 東南東 3 10km以上 29 29 1007
24 15:30 南東 3 10km以上 29 27 1007
24 15:00 不定 2 10km以上 29 23 1007
24 14:30 東北東 3 10km以上 29 22 1007
24 14:00 3 10km以上 29 27 1007
24 13:30 東北東 3 10km以上 28 28 1008
24 13:00 3 10km以上 28 28 1008
24 12:30 3 10km以上 28 27 1008
24 12:00 3 10km以上 27 24 1008
24 11:30 不定 2 10km以上 26 28 1008
24 11:00 不定 2 10km以上 25 34 1009
24 10:30 不定 1 10km以上 25 36 1009
24 10:00 不定 2 10km以上 24 36 1009
24 09:30 不定 1 10km以上 22 38 1009
24 09:00 不定 2 10km以上 21 43 1010
24 08:30 不定 1 10km以上 20 49 1010
24 08:00 不定 2 10km以上 19 52 1010
UTDD 260200Z VRB01MPS 9999 NSC 23/14 Q1012 R09/D NOSIG RMK QFE691/0921
UTDD 260130Z VRB02MPS 9999 NSC 21/12 Q1012 R09/D NOSIG RMK QFE691/0921
UTDD 260100Z 01004MPS 9999 NSC 20/12 Q1011 R09/D NOSIG RMK QFE691/0921
UTDD 260030Z VRB02MPS 9999 NSC 18/12 Q1011 R09/D NOSIG RMK QFE691/0921
UTDD 260000Z 21002MPS 9999 NSC 17/12 Q1011 R09/D NOSIG RMK QFE690/0920
UTDD 252300Z 02002MPS 9999 NSC 19/12 Q1010 R09/D NOSIG RMK QFE690/0920
UTDD 252230Z 05003MPS 010V070 9999 NSC 19/12 Q1010 R09/D NOSIG RMK QFE690/0920
UTDD 252200Z VRB02MPS 9999 NSC 18/12 Q1010 R09/D NOSIG RMK QFE690/0920
UTDD 252130Z VRB01MPS 9999 NSC 19/12 Q1010 R09/D NOSIG RMK QFE690/0920
UTDD 252100Z VRB01MPS 9999 NSC 19/12 Q1010 R09/D NOSIG RMK QFE690/0920
UTDD 252030Z 04002MPS 9999 NSC 20/12 Q1011 R09/D NOSIG RMK QFE690/0920
UTDD 252000Z 11002MPS 9999 NSC 19/13 Q1011 R09/D NOSIG RMK QFE690/0920
UTDD 251930Z 08002MPS 9999 NSC 20/12 Q1011 R09/D NOSIG RMK QFE690/0920
UTDD 251900Z VRB01MPS 9999 NSC 21/12 Q1011 R09/D NOSIG RMK QFE690/0920
UTDD 251830Z 36002MPS 9999 NSC 21/13 Q1011 R09/D NOSIG RMK QFE690/0921
UTDD 251800Z VRB02MPS 9999 NSC 21/12 Q1011 R09/D NOSIG RMK QFE690/0920
UTDD 251730Z VRB01MPS 9999 NSC 22/12 Q1011 R09/D NOSIG RMK QFE690/0920
UTDD 251700Z VRB02MPS 9999 NSC 23/13 Q1011 R09/D NOSIG RMK QFE690/0921
UTDD 251630Z VRB01MPS 9999 NSC 24/12 Q1011 R09/D NOSIG RMK QFE690/0921
UTDD 251600Z 10003MPS 9999 NSC 24/13 Q1011 R09/D NOSIG RMK QFE690/0920
UTDD 251530Z 35004MPS 9999 NSC 26/12 Q1010 R09/D NOSIG RMK QFE690/0920
UTDD 251500Z 01003MPS 9999 NSC 26/12 Q1010 R09/D NOSIG RMK QFE690/0919
UTDD 251430Z 03003MPS 9999 NSC 27/13 Q1010 R09/D NOSIG RMK QFE689/0919
UTDD 251400Z VRB02MPS 9999 NSC 29/14 Q1010 R09/D NOSIG RMK QFE689/0919
UTDD 251330Z 13002MPS 9999 NSC 31/12 Q1010 R09/D NOSIG RMK QFE689/0919
UTDD 251300Z 13002MPS 9999 NSC 32/10 Q1010 R09/D NOSIG RMK QFE689/0919
UTDD 251230Z 16002MPS 9999 NSC 32/11 Q1010 R09/D NOSIG RMK QFE689/0919
UTDD 251200Z VRB02MPS 9999 NSC 32/08 Q1010 R09/D NOSIG RMK QFE689/0919
UTDD 251130Z VRB02MPS 9999 NSC 33/10 Q1010 R09/D NOSIG RMK QFE690/0919
UTDD 251100Z VRB01MPS 9999 NSC 34/08 Q1010 R09/D NOSIG RMK QFE690/0920
UTDD 251030Z VRB02MPS 9999 NSC 33/09 Q1010 R09/D NOSIG RMK QFE690/0920
UTDD 251000Z VRB02MPS 9999 NSC 33/09 Q1010 R09/D NOSIG RMK QFE690/0920
UTDD 250930Z VRB02MPS 9999 NSC 33/08 Q1011 R09/D NOSIG RMK QFE690/0920
UTDD 250900Z VRB02MPS 9999 NSC 33/07 Q1011 R09/D NOSIG RMK QFE690/0920
UTDD 250830Z 08003MPS 050V120 9999 NSC 32/07 Q1011 R09/D NOSIG RMK QFE690/0920
UTDD 250800Z 15003MPS 100V200 9999 NSC 32/05 Q1011 R09/D NOSIG RMK QFE690/0920
UTDD 250730Z 13003MPS 090V160 9999 NSC 31/09 Q1011 R09/D NOSIG RMK QFE690/0921
UTDD 250700Z 10003MPS 050V140 9999 NSC 31/08 Q1011 R09/D NOSIG RMK QFE690/0921
UTDD 250630Z 14003MPS 110V190 9999 NSC 30/06 Q1012 R09/D NOSIG RMK QFE691/0921
UTDD 250600Z VRB02MPS 9999 NSC 29/08 Q1012 R09/D NOSIG RMK QFE691/0921
UTDD 250530Z VRB02MPS 9999 NSC 29/09 Q1012 R09/D NOSIG RMK QFE691/0921
UTDD 250500Z VRB01MPS 9999 NSC 28/10 Q1012 R09/D NOSIG RMK QFE691/0921
UTDD 250430Z VRB02MPS 9999 NSC 26/08 Q1012 R09/D NOSIG RMK QFE691/0921
UTDD 250400Z VRB02MPS 9999 NSC 25/08 Q1012 R09/D NOSIG RMK QFE691/0921
UTDD 250330Z VRB01MPS 9999 NSC 24/09 Q1012 R09/D NOSIG RMK QFE691/0921
UTDD 250300Z VRB01MPS 9999 NSC 21/13 Q1012 R09/D NOSIG RMK QFE691/0921
UTDD 250230Z VRB02MPS 9999 NSC 20/12 Q1012 R09/D NOSIG RMK QFE691/0921
UTDD 250200Z VRB02MPS 9999 NSC 20/09 Q1012 R09/D NOSIG RMK QFE691/0921
UTDD 250130Z 35001MPS 9999 NSC 18/10 Q1011 R09/D NOSIG RMK QFE690/0921
UTDD 250100Z VRB02MPS 9999 NSC 18/08 Q1011 R09/D NOSIG RMK QFE690/0920
UTDD 250030Z VRB02MPS 9999 NSC 16/09 Q1011 R09/D NOSIG RMK QFE690/0920
UTDD 250000Z 36002MPS 9999 NSC 15/10 Q1010 R09/D NOSIG RMK QFE690/0920
UTDD 242330Z VRB01MPS 9999 NSC 14/10 Q1010 R09/D NOSIG RMK QFE690/0920
UTDD 242300Z VRB01MPS 9999 NSC 15/10 Q1010 R09/D NOSIG RMK QFE690/0919
UTDD 242230Z VRB01MPS 9999 NSC 15/09 Q1010 R09/D NOSIG RMK QFE689/0919
UTDD 242200Z VRB02MPS 9999 NSC 16/10 Q1009 R09/D NOSIG RMK QFE689/0919
UTDD 242130Z VRB01MPS 9999 NSC 17/10 Q1009 R09/D NOSIG RMK QFE689/0919
UTDD 242100Z 35002MPS 9999 NSC 16/10 Q1009 R09/D NOSIG RMK QFE689/0919
UTDD 242030Z VRB02MPS 9999 NSC 17/10 Q1009 R09/D NOSIG RMK QFE689/0919
UTDD 242000Z VRB02MPS 9999 NSC 16/11 Q1009 R09/D NOSIG RMK QFE689/0919
UTDD 241930Z VRB02MPS 9999 NSC 20/09 Q1009 R09/D NOSIG RMK QFE689/0919
UTDD 241900Z 01001MPS 9999 NSC 18/11 Q1009 R09/D NOSIG RMK QFE689/0919
UTDD 241830Z VRB01MPS 9999 NSC 19/11 Q1009 R09/D NOSIG RMK QFE689/0919
UTDD 241800Z VRB01MPS 9999 NSC 19/11 Q1009 R09/D NOSIG RMK QFE689/0918
UTDD 241730Z 08001MPS 9999 NSC 20/11 Q1009 R09/CLRD// NOSIG RMK QFE689/0918
UTDD 241700Z VRB02MPS 9999 NSC 21/11 Q1009 R09/CLRD// NOSIG RMK QFE689/0918
UTDD 241630Z VRB01MPS 9999 NSC 20/10 Q1008 R09/D NOSIG RMK QFE688/0918
UTDD 241600Z VRB01MPS 9999 NSC 23/11 Q1008 R09/CLRD// NOSIG RMK QFE688/0917
UTDD 241530Z VRB02MPS 9999 NSC 22/11 Q1008 R09/CLRD// NOSIG RMK QFE688/0917
UTDD 241500Z 01003MPS 9999 NSC 23/12 Q1007 R09/D NOSIG RMK QFE688/0917
UTDD 241430Z 01002MPS 9999 NSC 25/10 Q1007 R09/D NOSIG RMK QFE687/0917
UTDD 241400Z VRB02MPS 9999 NSC 27/10 Q1007 R09/D NOSIG RMK QFE687/0916
UTDD 241330Z VRB02MPS 9999 NSC 28/12 Q1007 R09/D NOSIG RMK QFE687/0916
UTDD 241300Z VRB02MPS 9999 NSC 29/10 Q1006 R09/D NOSIG RMK QFE687/0916
UTDD 241230Z VRB02MPS 9999 NSC 29/08 Q1006 R09/D NOSIG RMK QFE687/0916
UTDD 241200Z VRB02MPS 9999 NSC 29/08 Q1006 R09/D NOSIG RMK QFE687/0916
UTDD 241130Z 12003MPS 080V140 9999 NSC 29/08 Q1007 R09/D NOSIG RMK QFE687/0916
UTDD 241100Z 12003MPS 080V160 9999 NSC 29/09 Q1007 R09/D NOSIG RMK QFE687/0916
UTDD 241030Z 14003MPS 080V200 9999 NSC 29/08 Q1007 R09/D NOSIG RMK QFE687/0917
UTDD 241000Z VRB02MPS 9999 NSC 29/06 Q1007 R09/D NOSIG RMK QFE687/0917
UTDD 240930Z 07003MPS 350V120 9999 NSC 29/05 Q1007 R09/D NOSIG RMK QFE687/0917
UTDD 240900Z VRB03MPS 9999 NSC 29/08 Q1007 R09/D NOSIG RMK QFE688/0917
UTDD 240830Z 07003MPS 020V110 9999 NSC 28/08 Q1008 R09/D NOSIG RMK QFE688/0917
UTDD 240800Z VRB03MPS 9999 NSC 28/08 Q1008 R09/D NOSIG RMK QFE688/0917
UTDD 240730Z 17003MPS 060V220 9999 NSC 28/07 Q1008 R09/D NOSIG RMK QFE688/0917
UTDD 240700Z 19003MPS 140V250 9999 NSC 27/05 Q1008 R09/D NOSIG RMK QFE688/0918
UTDD 240630Z VRB02MPS 9999 NSC 26/06 Q1008 R09/D NOSIG RMK QFE688/0918
UTDD 240600Z VRB02MPS 9999 NSC 25/08 Q1009 R09/D NOSIG RMK QFE689/0918
UTDD 240530Z VRB01MPS 9999 NSC 25/09 Q1009 R09/D NOSIG RMK QFE689/0919
UTDD 240500Z VRB02MPS 9999 NSC 24/08 Q1009 R09/D NOSIG RMK QFE689/0919
UTDD 240430Z VRB01MPS 9999 NSC 22/07 Q1009 R09/D NOSIG RMK QFE689/0919
UTDD 240400Z VRB02MPS 9999 NSC 21/08 Q1010 R09/D NOSIG RMK QFE689/0919
UTDD 240330Z VRB01MPS 9999 NSC 20/09 Q1010 R09/D NOSIG RMK QFE689/0919
UTDD 240300Z VRB02MPS 9999 NSC 19/09 Q1010 R09/D NOSIG RMK QFE690/0919